Time;durP1;ratioP1;P1;durP2;ratioP2;P2;SDS_P1;SDS_P2;PMS_P1;PMS_P2;Temp;Humidity;BMP_temperature;BMP_pressure;BME280_temperature;BME280_humidity;BME280_pressure;Samples;Min_cycle;Max_cycle;Signal;HPM_P1;HPM_P2
2024/01/03 00:00:57;;;;;;;45.70;27.00;;;;;;;4.35;86.58;97207.16;10376865;28;20570;-49
2024/01/03 00:05:56;;;;;;;44.38;26.20;;;;;;;4.01;86.27;97143.31;10371548;28;20056;-49
2024/01/03 00:10:56;;;;;;;27.48;14.95;;;;;;;4.40;87.08;97218.34;10376390;28;20052;-49
2024/01/03 00:16:01;;;;;;;85.95;40.53;;;;;;;4.67;86.61;97208.47;10375319;28;20167;-49
2024/01/03 00:21:00;;;;;;;69.78;35.72;;;;;;;4.74;85.48;97229.13;10371683;28;20116;-48
2024/01/03 00:25:59;;;;;;;28.38;14.82;;;;;;;4.67;85.23;97217.88;10377478;28;20068;-49
2024/01/03 00:30:58;;;;;;;53.25;28.95;;;;;;;4.93;84.52;97219.09;10374021;28;20129;-48
2024/01/03 00:35:57;;;;;;;20.10;11.32;;;;;;;4.99;84.18;97210.59;10373625;28;20148;-50
2024/01/03 00:40:57;;;;;;;18.73;10.60;;;;;;;5.67;83.68;97216.47;10375537;28;20048;-50
2024/01/03 00:45:57;;;;;;;16.40;8.90;;;;;;;6.06;81.09;97215.13;10371467;28;20061;-49
2024/01/03 00:50:56;;;;;;;13.52;8.35;;;;;;;6.05;81.16;97197.97;10374328;28;20474;-50
2024/01/03 00:55:55;;;;;;;11.57;7.10;;;;;;;6.18;79.55;97215.22;10366126;28;20136;-49
2024/01/03 01:00:54;;;;;;;;;;;;;;;6.41;79.60;97228.25;10364002;28;20067;-48
2024/01/03 01:05:53;;;;;;;12.23;8.05;;;;;;;6.39;78.52;97205.06;10363495;28;19912;-48
2024/01/03 01:10:52;;;;;;;10.25;6.63;;;;;;;6.21;77.87;97199.78;10362841;28;20112;-48
2024/01/03 01:15:51;;;;;;;10.07;6.72;;;;;;;6.17;79.00;97216.94;10362379;28;20039;-48
2024/01/03 01:20:50;;;;;;;22.90;11.63;;;;;;;6.34;78.03;97236.81;10362683;28;20535;-50
2024/01/03 01:25:49;;;;;;;11.90;7.47;;;;;;;6.22;78.79;97162.88;10363028;28;20155;-49
2024/01/03 01:30:48;;;;;;;12.82;6.80;;;;;;;6.55;77.52;97210.31;10362870;28;20067;-49
2024/01/03 01:35:48;;;;;;;15.40;6.85;;;;;;;6.70;77.31;97184.63;10363979;28;20041;-49
2024/01/03 01:40:49;;;;;;;14.15;7.45;;;;;;;6.78;76.55;97182.94;10362915;28;20090;-51
2024/01/03 01:45:48;;;;;;;47.35;30.45;;;;;;;6.74;74.43;97190.66;10362288;28;20060;-49
2024/01/03 01:50:47;;;;;;;20.40;11.48;;;;;;;7.07;74.49;97200.25;10360853;28;20075;-49
2024/01/03 01:55:46;;;;;;;15.10;9.38;;;;;;;7.08;73.86;97193.38;10362171;28;20040;-50
2024/01/03 02:00:46;;;;;;;28.55;20.50;;;;;;;7.48;72.88;97201.28;10362285;28;20084;-49
2024/01/03 02:05:45;;;;;;;;;;;;;;;7.63;71.83;97215.06;10364052;28;20463;-49
2024/01/03 02:10:43;;;;;;;14.35;8.23;;;;;;;7.46;71.90;97193.53;10367074;28;20340;-49
2024/01/03 02:15:42;;;;;;;11.68;8.63;;;;;;;7.41;71.66;97156.53;10370950;28;20882;-49
2024/01/03 02:20:43;;;;;;;9.57;6.20;;;;;;;7.65;69.98;97197.88;10370472;28;20505;-50
2024/01/03 02:25:42;;;;;;;12.02;8.63;;;;;;;7.65;70.71;97195.28;10369419;28;20065;-51
2024/01/03 02:30:44;;;;;;;10.00;6.18;;;;;;;7.53;70.64;97173.75;10370033;28;20068;-50
2024/01/03 02:35:43;;;;;;;11.63;8.85;;;;;;;7.68;70.91;97193.56;10369620;28;20752;-49
2024/01/03 02:40:44;;;;;;;10.10;7.43;;;;;;;7.88;70.30;97197.03;10369998;28;20490;-49
2024/01/03 02:45:43;;;;;;;7.28;5.40;;;;;;;7.89;70.34;97203.91;10367829;28;20120;-48
2024/01/03 02:50:47;;;;;;;9.13;5.70;;;;;;;7.49;69.67;97110.06;10369477;28;20115;-49
2024/01/03 02:55:46;;;;;;;12.55;7.82;;;;;;;7.74;69.85;97158.28;10369565;28;20068;-50
2024/01/03 03:00:45;;;;;;;30.30;19.38;;;;;;;7.50;70.75;97163.41;10369316;28;20064;-49
2024/01/03 03:05:44;;;;;;;23.02;15.77;;;;;;;6.58;71.06;97020.41;10366981;28;20120;-49
2024/01/03 03:10:43;;;;;;;19.17;12.98;;;;;;;7.34;70.96;97183.16;10372881;28;20032;-49
2024/01/03 03:15:42;;;;;;;21.83;14.20;;;;;;;7.22;71.79;97197.75;10378841;28;20116;-48
2024/01/03 03:20:41;;;;;;;14.38;10.15;;;;;;;7.19;71.61;97196.84;10377156;28;20111;-48
2024/01/03 03:25:40;;;;;;;32.25;20.50;;;;;;;7.18;71.88;97188.25;10376543;28;20071;-48
2024/01/03 03:30:39;;;;;;;19.95;13.35;;;;;;;7.09;72.30;97170.16;10374788;28;20055;-48
2024/01/03 03:35:38;;;;;;;16.60;10.90;;;;;;;7.18;72.11;97183.09;10378610;28;20127;-48
2024/01/03 03:40:37;;;;;;;18.58;12.13;;;;;;;7.16;72.64;97168.47;10376252;28;20110;-48
2024/01/03 03:45:36;;;;;;;16.52;11.30;;;;;;;7.04;72.20;97149.50;10374463;28;20040;-49
2024/01/03 03:50:35;;;;;;;16.55;11.43;;;;;;;7.16;72.85;97153.84;10377497;28;20036;-48
2024/01/03 03:55:34;;;;;;;14.25;10.48;;;;;;;7.21;72.70;97157.28;10376862;28;20124;-47
2024/01/03 04:00:33;;;;;;;15.88;10.95;;;;;;;7.23;72.83;97153.00;10377776;28;20031;-48
2024/01/03 04:05:36;;;;;;;15.50;11.10;;;;;;;7.34;72.76;97178.84;10377505;28;20037;-49
2024/01/03 04:10:35;;;;;;;34.85;23.27;;;;;;;7.22;72.69;97161.59;10377047;28;20056;-50
2024/01/03 04:15:34;;;;;;;66.28;36.47;;;;;;;7.14;73.04;97176.19;10376241;28;20538;-48
2024/01/03 04:20:33;;;;;;;50.80;29.92;;;;;;;7.11;73.25;97170.19;10376395;28;20426;-49
2024/01/03 04:25:32;;;;;;;48.33;29.55;;;;;;;6.90;73.75;97146.03;10374353;28;20040;-48
2024/01/03 04:30:31;;;;;;;31.80;21.75;;;;;;;7.04;73.32;97158.97;10376364;28;20035;-50
2024/01/03 04:35:30;;;;;;;32.42;21.85;;;;;;;7.07;73.39;97148.66;10375104;28;20048;-49
2024/01/03 04:40:30;;;;;;;34.17;21.42;;;;;;;6.99;74.19;97166.69;10375331;28;20078;-48
2024/01/03 04:45:29;;;;;;;35.38;22.77;;;;;;;6.95;73.76;97164.94;10373873;28;20132;-48
2024/01/03 04:50:28;;;;;;;;;;;;;;;7.03;73.89;97193.38;10374396;28;20075;-48
2024/01/03 04:55:27;;;;;;;42.83;26.13;;;;;;;6.78;74.80;97188.09;10374254;28;19965;-47
2024/01/03 05:00:26;;;;;;;47.63;27.88;;;;;;;6.69;75.01;97185.47;10376059;28;20104;-47
2024/01/03 05:05:25;;;;;;;41.47;26.75;;;;;;;6.67;74.86;97186.31;10372654;28;20123;-51
2024/01/03 05:10:24;;;;;;;49.30;31.35;;;;;;;6.38;75.47;97169.84;10374197;28;20044;-48
2024/01/03 05:15:23;;;;;;;40.92;25.50;;;;;;;6.36;76.65;97181.84;10374650;28;20390;-50
2024/01/03 05:20:22;;;;;;;34.20;23.75;;;;;;;6.52;76.42;97205.16;10374262;28;20039;-47
2024/01/03 05:25:21;;;;;;;34.40;24.60;;;;;;;6.59;76.07;97206.91;10372480;28;20037;-48
2024/01/03 05:30:20;;;;;;;22.05;14.90;;;;;;;6.38;75.94;97172.41;10370310;28;20083;-48
2024/01/03 05:35:19;;;;;;;31.25;20.90;;;;;;;6.50;77.05;97183.66;10368073;28;20037;-48
2024/01/03 05:40:18;;;;;;;23.63;15.32;;;;;;;6.23;76.61;97115.63;10376100;28;20534;-48
2024/01/03 05:45:17;;;;;;;20.52;12.70;;;;;;;6.68;76.27;97162.25;10371435;28;20449;-48
2024/01/03 05:50:16;;;;;;;26.33;16.75;;;;;;;6.89;76.08;97171.78;10372632;28;20144;-50
2024/01/03 05:55:15;;;;;;;20.05;13.18;;;;;;;6.99;76.19;97169.28;10372106;28;20025;-48
2024/01/03 06:00:15;;;;;;;24.02;15.38;;;;;;;7.03;74.74;97170.16;10373448;28;20038;-50
2024/01/03 06:05:16;;;;;;;26.45;15.93;;;;;;;7.07;71.75;97133.16;10361271;28;20061;-49
2024/01/03 06:10:15;;;;;;;22.27;14.27;;;;;;;7.43;71.15;97150.50;10362002;28;20068;-48
2024/01/03 06:15:14;;;;;;;13.63;9.32;;;;;;;7.48;70.41;97098.88;10361155;28;20120;-48
2024/01/03 06:20:13;;;;;;;15.88;10.20;;;;;;;7.82;69.95;97150.53;10362058;28;20060;-49
2024/01/03 06:25:12;;;;;;;22.60;14.27;;;;;;;7.68;69.76;97116.09;10362334;28;20056;-50
2024/01/03 06:30:11;;;;;;;20.73;13.45;;;;;;;7.94;69.34;97113.50;10359548;28;20060;-50
2024/01/03 06:35:10;;;;;;;16.42;11.57;;;;;;;7.97;69.55;97136.75;10361030;28;20586;-47
2024/01/03 06:40:09;;;;;;;16.73;11.70;;;;;;;8.02;69.37;97141.06;10358571;28;20502;-48
2024/01/03 06:45:09;;;;;;;14.40;9.38;;;;;;;8.24;69.58;97172.91;10360711;28;20486;-50
2024/01/03 06:50:08;;;;;;;35.30;25.17;;;;;;;8.21;66.51;97161.72;10361383;28;20115;-48
2024/01/03 06:55:07;;;;;;;14.93;9.70;;;;;;;8.51;65.77;97168.56;10362741;28;20115;-48
2024/01/03 07:00:07;;;;;;;7.93;5.85;;;;;;;8.15;65.04;97072.09;10368311;28;20065;-48
2024/01/03 07:05:06;;;;;;;;;;;;;;;8.94;63.39;97173.59;10364089;28;20141;-49
2024/01/03 07:10:05;;;;;;;73.20;33.17;;;;;;;9.15;62.48;97188.16;10367093;28;20458;-48
2024/01/03 07:15:06;;;;;;;20.08;11.57;;;;;;;9.39;61.68;97178.59;10366407;28;20497;-48
2024/01/03 07:20:05;;;;;;;16.15;10.02;;;;;;;9.43;60.58;97182.88;10364650;28;20068;-50
2024/01/03 07:25:05;;;;;;;19.63;12.30;;;;;;;9.58;59.21;97169.81;10367063;28;20083;-50
2024/01/03 07:30:04;;;;;;;;;;;;;;;9.72;57.95;97172.31;10366216;28;20056;-48
2024/01/03 07:35:03;;;;;;;14.33;9.53;;;;;;;9.77;57.65;97152.44;10366511;28;19952;-49
2024/01/03 07:40:02;;;;;;;10.68;6.95;;;;;;;9.97;54.87;97166.09;10366458;28;20052;-50
2024/01/03 07:45:01;;;;;;;14.77;8.60;;;;;;;9.75;55.19;97113.59;10367153;28;20045;-47
2024/01/03 07:50:00;;;;;;;21.13;10.57;;;;;;;10.21;54.90;97148.59;10363757;28;20039;-52
2024/01/03 07:54:59;;;;;;;16.88;9.65;;;;;;;10.42;56.61;97116.41;10358888;28;20043;-51
2024/01/03 07:59:58;;;;;;;12.23;6.78;;;;;;;10.27;55.92;97091.50;10366319;28;20521;-48
2024/01/03 08:04:57;;;;;;;;;;;;;;;10.53;55.28;97129.28;10366305;28;20124;-48
2024/01/03 08:09:56;;;;;;;30.65;16.83;;;;;;;10.35;54.75;97078.44;10368241;28;20042;-48
2024/01/03 08:14:55;;;;;;;20.27;13.57;;;;;;;10.54;53.90;97079.97;10374278;28;20024;-49
2024/01/03 08:19:54;;;;;;;16.75;10.63;;;;;;;10.36;54.28;97060.28;10375611;28;20132;-48
2024/01/03 08:24:53;;;;;;;11.30;7.30;;;;;;;10.63;54.43;97104.94;10375156;28;20061;-48
2024/01/03 08:29:52;;;;;;;10.48;7.45;;;;;;;10.39;53.55;97068.03;10387228;28;20140;-48
2024/01/03 08:34:51;;;;;;;;;;;;;;;10.92;53.20;97128.00;10375259;28;20137;-50
2024/01/03 08:39:50;;;;;;;7.22;5.72;;;;;;;10.96;52.58;97121.00;10373401;28;20082;-47
2024/01/03 08:44:51;;;;;;;7.95;5.70;;;;;;;11.16;52.23;97124.22;10375582;28;20105;-50
2024/01/03 08:49:50;;;;;;;7.22;6.18;;;;;;;11.00;50.26;97079.41;10373713;28;20056;-50
2024/01/03 08:54:49;;;;;;;9.23;5.28;;;;;;;10.79;49.44;97084.84;10357077;28;20123;-49
2024/01/03 08:59:48;;;;;;;8.27;6.10;;;;;;;11.21;49.21;97111.16;10363215;28;20068;-48
2024/01/03 09:04:47;;;;;;;9.55;7.13;;;;;;;11.32;48.95;97096.28;10365885;28;20424;-48
2024/01/03 09:09:46;;;;;;;10.52;4.97;;;;;;;11.19;49.40;97074.81;10367422;28;20063;-50
2024/01/03 09:14:45;;;;;;;7.88;5.82;;;;;;;10.99;50.27;97095.88;10355816;28;20124;-49
2024/01/03 09:19:43;;;;;;;10.82;7.18;;;;;;;10.79;51.50;97085.69;10364004;28;20040;-49
2024/01/03 09:24:42;;;;;;;5.00;4.50;;;;;;;10.87;50.19;97080.47;10356796;28;20053;-47
2024/01/03 09:29:41;;;;;;;5.85;5.20;;;;;;;11.17;50.15;97078.31;10358264;28;20490;-49
2024/01/03 09:34:40;;;;;;;8.32;5.75;;;;;;;11.29;50.57;97074.69;10357993;28;20401;-49
2024/01/03 09:39:40;;;;;;;8.55;5.90;;;;;;;11.35;52.59;97087.59;10389484;28;20024;-49
2024/01/03 09:44:39;;;;;;;8.80;6.32;;;;;;;11.42;51.19;97087.47;10366778;28;20053;-48
2024/01/03 09:49:38;;;;;;;4.70;4.20;;;;;;;11.12;48.19;97061.94;10363624;28;20103;-50
2024/01/03 09:54:38;;;;;;;7.88;6.18;;;;;;;11.36;48.51;97064.19;10358038;28;20469;-48
2024/01/03 09:59:37;;;;;;;7.28;5.50;;;;;;;11.58;49.00;97069.06;10362512;28;20056;-48
2024/01/03 10:04:36;;;;;;;28.10;19.13;;;;;;;11.52;48.31;97045.75;10352177;28;20107;-51
2024/01/03 10:09:46;;;;;;;6.38;5.78;;;;;;;11.24;47.40;97002.91;10360075;28;20027;-49
2024/01/03 10:14:46;;;;;;;19.73;11.75;;;;;;;11.07;48.53;97059.41;10361622;28;20152;-50
2024/01/03 10:19:44;;;;;;;7.55;6.78;;;;;;;11.17;49.15;97045.41;10359233;28;20124;-50
2024/01/03 10:24:43;;;;;;;17.60;10.20;;;;;;;11.32;48.37;97012.31;10360402;28;20254;-48
2024/01/03 10:29:42;;;;;;;14.43;12.35;;;;;;;11.36;49.15;96994.06;10363275;28;20041;-48
2024/01/03 10:34:42;;;;;;;8.38;6.13;;;;;;;11.37;48.31;97003.56;10368005;28;20100;-49
2024/01/03 10:39:43;;;;;;;9.70;7.40;;;;;;;11.66;49.75;96994.41;10363764;28;20065;-48
2024/01/03 10:44:43;;;;;;;7.90;6.72;;;;;;;11.45;49.81;96938.47;10350834;28;20068;-49
2024/01/03 10:49:44;;;;;;;11.15;6.75;;;;;;;11.99;47.71;97005.94;10354410;28;20832;-48
2024/01/03 10:54:48;;;;;;;15.43;11.00;;;;;;;11.96;47.95;97018.16;10365624;28;20810;-48
2024/01/03 11:00:06;;;;;;;18.45;12.82;;;;;;;12.02;49.03;97016.28;10363762;28;20120;-49
2024/01/03 11:05:25;;;;;;;8.68;7.78;;;;;;;12.13;48.48;97003.06;10366642;28;20471;-48
2024/01/03 11:10:51;;;;;;;5.40;4.90;;;;;;;11.63;49.15;97002.25;10362516;28;20127;-49
2024/01/03 11:15:50;;;;;;;4.70;4.28;;;;;;;11.11;50.78;97000.53;10358700;28;20151;-48
2024/01/03 11:20:49;;;;;;;9.55;6.50;;;;;;;10.91;50.94;96982.63;10359764;28;20489;-48
2024/01/03 11:25:49;;;;;;;13.15;10.60;;;;;;;11.11;51.57;96990.13;10365535;28;20433;-48
2024/01/03 11:30:48;;;;;;;14.63;9.95;;;;;;;10.76;52.14;96956.00;10364651;28;20116;-50
2024/01/03 11:35:47;;;;;;;11.52;7.30;;;;;;;10.36;53.09;96958.28;10358882;28;20044;-48
2024/01/03 11:40:48;;;;;;;10.70;6.82;;;;;;;10.32;52.96;96987.72;10364750;28;20128;-48
2024/01/03 11:45:47;;;;;;;7.63;5.78;;;;;;;10.24;53.20;96969.69;10368305;28;20439;-48
2024/01/03 11:50:46;;;;;;;13.27;7.45;;;;;;;10.71;53.22;96975.13;10366987;28;20491;-49
2024/01/03 11:55:50;;;;;;;21.13;15.40;;;;;;;10.82;53.92;96979.28;10365012;28;20152;-48
2024/01/03 12:00:49;;;;;;;7.28;5.82;;;;;;;10.79;53.05;96994.03;10361478;28;20136;-50
2024/01/03 12:05:48;;;;;;;5.30;4.18;;;;;;;10.56;53.15;96945.03;10358021;28;20041;-48
2024/01/03 12:10:48;;;;;;;4.80;4.43;;;;;;;10.72;52.65;96954.31;10360923;28;20029;-49
2024/01/03 12:15:47;;;;;;;7.03;5.70;;;;;;;11.04;53.51;96953.88;10364532;28;20147;-48
2024/01/03 12:20:46;;;;;;;14.48;10.23;;;;;;;11.08;53.86;96956.41;10364980;28;20071;-50
2024/01/03 12:25:45;;;;;;;7.25;6.20;;;;;;;10.59;53.12;96899.16;10367424;28;21014;-47
2024/01/03 12:30:44;;;;;;;12.95;9.52;;;;;;;10.91;54.15;96928.13;10365936;28;20756;-48
2024/01/03 12:35:47;;;;;;;13.25;9.52;;;;;;;11.08;54.65;96977.19;10363823;28;20755;-49
2024/01/03 12:40:47;;;;;;;8.35;5.82;;;;;;;10.68;54.28;96939.66;10362944;28;20959;-48
2024/01/03 12:45:45;;;;;;;9.43;6.55;;;;;;;10.28;54.97;96901.31;10365806;28;20442;-50
2024/01/03 12:50:46;;;;;;;15.45;7.63;;;;;;;10.53;55.43;96943.34;10362039;28;20460;-48
2024/01/03 12:55:46;;;;;;;7.60;5.88;;;;;;;10.80;55.07;96954.22;10357866;28;20259;-47
2024/01/03 13:00:45;;;;;;;7.72;6.47;;;;;;;10.27;55.24;96909.13;10356263;28;20067;-48
2024/01/03 13:05:44;;;;;;;7.72;6.68;;;;;;;10.58;55.53;96951.91;10361355;28;20090;-50
2024/01/03 13:10:44;;;;;;;19.15;11.32;;;;;;;10.55;55.39;96967.53;10362021;28;20126;-48
2024/01/03 13:15:44;;;;;;;11.15;7.32;;;;;;;9.71;54.76;96785.44;10361315;28;20148;-49
2024/01/03 13:20:43;;;;;;;8.23;6.80;;;;;;;10.83;55.18;96936.00;10360283;28;20064;-51
2024/01/03 13:25:42;;;;;;;8.48;6.00;;;;;;;10.49;54.33;96920.91;10362301;28;20178;-51
2024/01/03 13:30:41;;;;;;;13.40;10.40;;;;;;;10.48;54.62;96950.34;10355166;28;20137;-50
2024/01/03 13:35:40;;;;;;;14.43;9.02;;;;;;;10.78;54.34;96927.44;10362349;28;20037;-49
2024/01/03 13:40:41;;;;;;;6.07;5.53;;;;;;;10.61;54.05;96936.31;10357286;28;20112;-49
2024/01/03 13:45:40;;;;;;;7.28;6.25;;;;;;;10.74;54.13;96941.34;10359560;28;20047;-48
2024/01/03 13:50:38;;;;;;;6.97;6.30;;;;;;;10.65;53.53;96879.19;10356971;28;20148;-49
2024/01/03 13:55:38;;;;;;;6.53;5.80;;;;;;;11.02;53.50;96908.91;10354664;28;20037;-48
2024/01/03 14:00:36;;;;;;;6.40;5.68;;;;;;;11.23;53.58;96959.63;10349714;28;20120;-48
2024/01/03 14:05:35;;;;;;;7.97;5.57;;;;;;;10.97;53.85;96956.59;10360506;28;20033;-49
2024/01/03 14:10:35;;;;;;;5.32;4.90;;;;;;;10.88;53.85;96925.59;10375509;28;20027;-50
2024/01/03 14:15:33;;;;;;;;;;;;;;;10.72;55.34;96953.47;10367531;28;20550;-48
2024/01/03 14:20:32;;;;;;;8.18;6.28;;;;;;;10.74;55.59;96962.09;10369994;28;19916;-47
2024/01/03 14:25:31;;;;;;;6.25;5.43;;;;;;;10.29;55.54;96933.31;10367140;28;20045;-48
2024/01/03 14:30:30;;;;;;;6.03;4.65;;;;;;;10.76;55.44;96927.44;10370367;28;20090;-47
2024/01/03 14:35:31;;;;;;;5.55;4.97;;;;;;;10.95;54.75;96935.84;10360062;28;20136;-47
2024/01/03 14:40:30;;;;;;;11.18;8.05;;;;;;;10.72;54.87;96927.53;10380688;28;20068;-48
2024/01/03 14:45:30;;;;;;;13.93;7.50;;;;;;;10.67;55.76;96961.31;10366136;28;20029;-52
2024/01/03 14:50:29;;;;;;;8.68;7.13;;;;;;;10.86;55.61;96972.28;10357521;28;20119;-48
2024/01/03 14:55:29;;;;;;;22.65;13.98;;;;;;;10.23;56.41;96895.34;10364738;28;20049;-50
2024/01/03 15:00:28;;;;;;;22.63;14.57;;;;;;;10.39;56.05;96934.91;10364450;28;20068;-48
2024/01/03 15:05:27;;;;;;;11.23;5.88;;;;;;;9.96;57.35;96888.81;10366880;28;20052;-48
2024/01/03 15:10:26;;;;;;;15.27;10.52;;;;;;;10.66;57.12;96979.50;10368030;28;20132;-48
2024/01/03 15:15:26;;;;;;;12.18;8.52;;;;;;;10.37;56.85;96916.75;10367466;28;20045;-47
2024/01/03 15:20:25;;;;;;;15.15;10.95;;;;;;;10.84;56.66;96979.22;10369097;28;20070;-47
2024/01/03 15:25:26;;;;;;;24.30;12.27;;;;;;;10.73;56.48;96955.16;10367217;28;20151;-48
2024/01/03 15:30:29;;;;;;;25.20;14.50;;;;;;;10.92;55.74;96972.25;10367209;28;20059;-47
2024/01/03 15:35:28;;;;;;;23.23;17.48;;;;;;;10.56;56.72;96891.41;10365206;28;20549;-47
2024/01/03 15:40:27;;;;;;;18.92;14.27;;;;;;;10.91;56.56;96965.31;10368748;28;20748;-47
2024/01/03 15:45:26;;;;;;;23.33;17.10;;;;;;;10.68;57.04;96938.81;10367429;28;20451;-48
2024/01/03 15:50:26;;;;;;;25.75;17.13;;;;;;;10.86;56.64;96982.66;10368930;28;20459;-47
2024/01/03 15:55:25;;;;;;;36.58;23.90;;;;;;;10.78;57.38;96982.78;10365969;28;20538;-48
2024/01/03 16:00:24;;;;;;;84.03;54.85;;;;;;;10.68;56.95;96975.13;10367350;28;20597;-48
2024/01/03 16:05:23;;;;;;;65.20;39.38;;;;;;;10.33;57.12;96942.75;10368593;28;20055;-48
2024/01/03 16:10:22;;;;;;;21.10;14.65;;;;;;;10.56;57.36;96990.00;10370134;28;20127;-47
2024/01/03 16:15:21;;;;;;;27.13;18.42;;;;;;;10.58;57.04;96992.56;10368978;28;20037;-48
2024/01/03 16:20:20;;;;;;;27.42;19.88;;;;;;;10.24;56.67;96932.50;10379310;28;20072;-48
2024/01/03 16:25:20;;;;;;;15.98;12.20;;;;;;;10.79;56.42;96991.44;10365219;28;20041;-48
2024/01/03 16:30:19;;;;;;;11.95;8.77;;;;;;;10.59;56.44;96966.63;10365086;28;20064;-48
2024/01/03 16:35:20;;;;;;;11.35;7.90;;;;;;;10.75;56.44;96980.25;10364785;28;20055;-49
2024/01/03 16:40:19;;;;;;;15.88;11.23;;;;;;;10.82;56.95;96981.00;10360898;28;20124;-51
2024/01/03 16:45:22;;;;;;;38.92;27.17;;;;;;;10.66;57.99;97015.81;10360265;28;20064;-49
2024/01/03 16:50:21;;;;;;;41.65;27.70;;;;;;;10.41;57.54;96980.69;10361788;28;20084;-47
2024/01/03 16:55:20;;;;;;;29.83;22.45;;;;;;;10.69;58.22;97021.84;10363992;28;20035;-49
2024/01/03 17:00:20;;;;;;;31.52;20.27;;;;;;;10.52;58.16;96997.84;10362288;28;20076;-50
2024/01/03 17:05:19;;;;;;;16.15;11.68;;;;;;;10.50;57.69;96995.28;10364748;28;20115;-48
2024/01/03 17:10:18;;;;;;;35.42;23.92;;;;;;;10.70;57.62;97013.16;10362554;28;20083;-49
2024/01/03 17:15:17;;;;;;;14.13;9.60;;;;;;;10.58;58.05;97009.00;10364764;28;20438;-48
2024/01/03 17:20:17;;;;;;;8.63;6.95;;;;;;;10.35;57.78;96985.09;10362224;28;20067;-47
2024/01/03 17:25:16;;;;;;;9.90;8.05;;;;;;;10.70;58.08;97020.09;10364265;28;20064;-48
2024/01/03 17:30:17;;;;;;;6.22;5.07;;;;;;;10.64;58.53;97022.78;10361610;28;20048;-48
2024/01/03 17:35:16;;;;;;;7.00;6.30;;;;;;;10.73;58.30;97020.03;10364756;28;20124;-49
2024/01/03 17:40:15;;;;;;;7.90;6.22;;;;;;;10.70;59.10;97022.69;10362842;28;20131;-49
2024/01/03 17:45:14;;;;;;;7.13;5.13;;;;;;;10.55;59.52;97001.25;10363202;28;20029;-49
2024/01/03 17:50:14;;;;;;;7.47;5.80;;;;;;;10.83;59.58;97037.22;10362201;28;20120;-50
2024/01/03 17:55:13;;;;;;;14.60;9.57;;;;;;;10.65;59.19;97007.19;10367202;28;20124;-49
2024/01/03 18:00:12;;;;;;;8.45;6.65;;;;;;;10.67;59.67;97023.59;10361440;28;20056;-49
2024/01/03 18:05:11;;;;;;;5.60;5.10;;;;;;;10.67;60.40;97048.69;10373984;28;20119;-50
2024/01/03 18:10:11;;;;;;;5.60;5.10;;;;;;;10.70;60.28;97027.88;10363366;28;20147;-49
2024/01/03 18:15:10;;;;;;;7.68;6.63;;;;;;;10.92;60.69;97044.91;10367895;28;20131;-47
2024/01/03 18:20:10;;;;;;;10.00;7.68;;;;;;;10.82;60.80;97040.69;10367378;28;20038;-48
2024/01/03 18:25:09;;;;;;;8.10;6.85;;;;;;;11.02;60.49;97030.91;10366512;28;20064;-47
2024/01/03 18:30:12;;;;;;;6.93;6.22;;;;;;;10.93;59.88;96997.31;10365720;28;20499;-49
2024/01/03 18:35:11;;;;;;;15.77;10.23;;;;;;;10.96;59.70;97004.19;10367739;28;20064;-49
2024/01/03 18:40:11;;;;;;;28.33;20.90;;;;;;;10.93;60.25;97009.44;10362022;28;20039;-47
2024/01/03 18:45:10;;;;;;;20.35;17.08;;;;;;;10.48;61.34;96959.88;10362950;28;20071;-50
2024/01/03 18:50:09;;;;;;;17.05;14.48;;;;;;;10.60;61.30;96999.47;10363830;28;20041;-48
2024/01/03 18:55:09;;;;;;;18.60;14.35;;;;;;;10.48;61.86;97002.22;10367261;28;20029;-48
2024/01/03 19:00:09;;;;;;;24.40;17.60;;;;;;;10.23;61.69;96998.22;10367666;28;20127;-49
2024/01/03 19:05:09;;;;;;;28.20;21.40;;;;;;;10.00;61.92;96952.66;10367288;28;20376;-48
2024/01/03 19:10:14;;;;;;;41.22;28.77;;;;;;;10.33;61.83;97024.03;10372054;28;20095;-48
2024/01/03 19:15:13;;;;;;;31.25;23.20;;;;;;;8.93;61.61;96783.75;10368133;28;20076;-48
2024/01/03 19:20:12;;;;;;;21.08;15.93;;;;;;;10.13;62.35;97002.66;10369896;28;20273;-48
2024/01/03 19:25:13;;;;;;;35.63;23.33;;;;;;;9.98;62.55;96982.94;10369733;28;20136;-49
2024/01/03 19:30:12;;;;;;;32.55;23.10;;;;;;;10.08;62.92;97012.22;10366331;28;20530;-50
2024/01/03 19:35:12;;;;;;;34.25;25.27;;;;;;;10.16;62.60;97020.75;10368000;28;20064;-49
2024/01/03 19:40:11;;;;;;;49.28;31.45;;;;;;;9.39;63.59;96937.78;10366579;28;20071;-50
2024/01/03 19:45:14;;;;;;;41.40;32.15;;;;;;;10.01;64.37;97032.16;10368353;28;20052;-51
2024/01/03 19:50:13;;;;;;;29.95;19.27;;;;;;;9.78;63.61;97004.72;10367223;28;20064;-49
2024/01/03 19:55:12;;;;;;;37.13;24.98;;;;;;;9.83;63.35;96975.31;10366802;28;20057;-48
2024/01/03 20:00:12;;;;;;;32.67;24.42;;;;;;;9.59;62.98;96940.19;10367545;28;20036;-50
2024/01/03 20:05:11;;;;;;;28.15;21.25;;;;;;;9.65;63.33;96982.44;10369914;28;20522;-49
2024/01/03 20:10:11;;;;;;;20.77;15.90;;;;;;;9.69;64.00;97016.91;10365963;28;20147;-50
2024/01/03 20:15:12;;;;;;;29.50;21.60;;;;;;;9.50;63.91;96987.72;10367533;28;20127;-48
2024/01/03 20:20:12;;;;;;;33.50;24.60;;;;;;;9.66;64.43;97022.97;10372607;28;20541;-48
2024/01/03 20:25:11;;;;;;;32.65;22.13;;;;;;;9.56;64.55;97029.97;10372012;28;20060;-51
2024/01/03 20:30:11;;;;;;;10.02;7.13;;;;;;;9.58;64.52;97022.19;10366906;28;20963;-48
2024/01/03 20:35:11;;;;;;;16.52;11.35;;;;;;;9.65;64.31;97031.66;10364030;28;20067;-50
2024/01/03 20:40:10;;;;;;;13.20;8.98;;;;;;;9.59;63.90;97013.56;10365470;28;20461;-50
2024/01/03 20:45:09;;;;;;;13.35;8.88;;;;;;;9.84;62.96;97002.94;10358121;28;20445;-49
2024/01/03 20:50:09;;;;;;;9.60;7.13;;;;;;;9.92;62.81;96995.97;10360000;28;20143;-50
2024/01/03 20:55:12;;;;;;;11.40;7.50;;;;;;;10.09;62.53;96994.03;10357279;28;20080;-50
2024/01/03 21:00:14;;;;;;;6.82;4.80;;;;;;;10.04;61.33;96969.06;10358496;28;20067;-50
2024/01/03 21:05:13;;;;;;;4.10;3.67;;;;;;;10.37;61.89;96993.72;10362686;28;20762;-49
2024/01/03 21:10:13;;;;;;;5.65;4.05;;;;;;;10.55;61.22;97022.00;10364147;28;20068;-49
2024/01/03 21:15:12;;;;;;;4.15;3.63;;;;;;;10.60;60.70;97004.66;10357801;28;20124;-49
2024/01/03 21:20:11;;;;;;;8.35;6.20;;;;;;;10.81;59.28;97015.63;10359003;28;20060;-49
2024/01/03 21:25:10;;;;;;;11.70;8.50;;;;;;;9.94;59.38;96843.91;10364327;28;20049;-49
2024/01/03 21:30:09;;;;;;;22.17;18.02;;;;;;;10.69;59.15;96958.72;10363399;28;20115;-49
2024/01/03 21:35:08;;;;;;;14.70;10.77;;;;;;;10.96;59.32;96992.09;10363943;28;20136;-49
2024/01/03 21:40:07;;;;;;;;;;;;;;;10.91;58.61;96987.81;10370333;28;20140;-50
2024/01/03 21:45:06;;;;;;;6.57;4.90;;;;;;;10.66;58.00;96941.44;10361114;28;19931;-49
2024/01/03 21:50:07;;;;;;;16.75;10.23;;;;;;;10.83;58.30;96972.34;10364449;28;20048;-49
2024/01/03 21:55:06;;;;;;;12.32;8.07;;;;;;;10.78;58.06;96948.19;10365316;28;20064;-51
2024/01/03 22:00:05;;;;;;;;;;;;;;;10.51;58.47;96952.88;10363415;28;20068;-50
2024/01/03 22:05:07;;;;;;;8.38;5.72;;;;;;;10.47;58.87;96952.94;10361977;28;19948;-47
2024/01/03 22:10:11;;;;;;;5.30;3.88;;;;;;;10.15;58.87;96930.91;10362789;28;20057;-50
2024/01/03 22:15:10;;;;;;;7.22;5.72;;;;;;;9.79;58.83;96873.44;10359121;28;20140;-48
2024/01/03 22:20:13;;;;;;;11.80;6.07;;;;;;;10.37;58.23;96921.09;10357142;28;20120;-49
2024/01/03 22:25:12;;;;;;;11.23;8.15;;;;;;;10.08;58.70;96908.53;10355570;28;20128;-49
2024/01/03 22:30:11;;;;;;;23.27;14.80;;;;;;;10.14;59.57;96949.91;10368487;28;20040;-49
2024/01/03 22:35:10;;;;;;;;;;;;;;;9.81;60.97;96958.94;10368913;28;20119;-49
2024/01/03 22:40:09;;;;;;;21.50;12.68;;;;;;;9.62;61.27;96928.03;10368601;28;20005;-49
2024/01/03 22:45:08;;;;;;;39.40;18.58;;;;;;;9.48;61.06;96941.13;10366268;28;20053;-49
2024/01/03 22:50:08;;;;;;;11.65;6.65;;;;;;;9.48;61.08;96886.75;10366867;28;20131;-49
2024/01/03 22:55:07;;;;;;;8.93;6.25;;;;;;;9.78;60.92;96926.16;10369919;28;20120;-48
2024/01/03 23:00:12;;;;;;;34.58;22.88;;;;;;;9.25;60.53;96871.41;10367980;28;20064;-47
2024/01/03 23:05:12;;;;;;;22.25;14.43;;;;;;;9.62;61.30;96912.50;10365493;28;20666;-47